sensor_id;sensor_type;location;lat;lon;timestamp;P1;durP1;ratioP1;P2;durP2;ratioP2
7233;SDS011;3658;47.992;10.158;2023-01-31T00:01:38;1.40;;;1.30;;
7233;SDS011;3658;47.992;10.158;2023-01-31T00:04:07;1.40;;;1.30;;
7233;SDS011;3658;47.992;10.158;2023-01-31T00:06:38;1.53;;;1.43;;
7233;SDS011;3658;47.992;10.158;2023-01-31T00:09:06;1.50;;;1.40;;
7233;SDS011;3658;47.992;10.158;2023-01-31T00:11:36;1.63;;;1.50;;
7233;SDS011;3658;47.992;10.158;2023-01-31T00:14:04;1.50;;;1.40;;
7233;SDS011;3658;47.992;10.158;2023-01-31T00:16:32;1.50;;;1.40;;
7233;SDS011;3658;47.992;10.158;2023-01-31T00:18:59;1.70;;;1.60;;
7233;SDS011;3658;47.992;10.158;2023-01-31T00:21:27;1.83;;;1.50;;
7233;SDS011;3658;47.992;10.158;2023-01-31T00:23:55;2.37;;;1.40;;
7233;SDS011;3658;47.992;10.158;2023-01-31T00:26:23;1.40;;;1.30;;
7233;SDS011;3658;47.992;10.158;2023-01-31T00:28:55;1.90;;;1.50;;
7233;SDS011;3658;47.992;10.158;2023-01-31T00:31:24;1.70;;;1.50;;
7233;SDS011;3658;47.992;10.158;2023-01-31T00:33:52;1.50;;;1.40;;
7233;SDS011;3658;47.992;10.158;2023-01-31T00:36:21;1.20;;;1.10;;
7233;SDS011;3658;47.992;10.158;2023-01-31T00:38:49;1.60;;;1.50;;
7233;SDS011;3658;47.992;10.158;2023-01-31T00:41:17;2.00;;;1.30;;
7233;SDS011;3658;47.992;10.158;2023-01-31T00:43:45;1.50;;;1.40;;
7233;SDS011;3658;47.992;10.158;2023-01-31T00:46:13;1.60;;;1.50;;
7233;SDS011;3658;47.992;10.158;2023-01-31T00:48:41;1.53;;;1.43;;
7233;SDS011;3658;47.992;10.158;2023-01-31T00:51:08;1.40;;;1.30;;
7233;SDS011;3658;47.992;10.158;2023-01-31T00:53:35;1.50;;;1.27;;
7233;SDS011;3658;47.992;10.158;2023-01-31T00:56:03;1.60;;;1.30;;
7233;SDS011;3658;47.992;10.158;2023-01-31T00:58:31;1.53;;;1.30;;
7233;SDS011;3658;47.992;10.158;2023-01-31T01:01:04;1.83;;;1.50;;
7233;SDS011;3658;47.992;10.158;2023-01-31T01:03:33;1.40;;;1.30;;
7233;SDS011;3658;47.992;10.158;2023-01-31T01:06:01;1.40;;;1.30;;
7233;SDS011;3658;47.992;10.158;2023-01-31T01:08:28;1.20;;;1.10;;
7233;SDS011;3658;47.992;10.158;2023-01-31T01:10:55;1.30;;;1.20;;
7233;SDS011;3658;47.992;10.158;2023-01-31T01:13:22;3.57;;;1.40;;
7233;SDS011;3658;47.992;10.158;2023-01-31T01:15:49;1.40;;;1.30;;
7233;SDS011;3658;47.992;10.158;2023-01-31T01:18:16;1.20;;;1.10;;
7233;SDS011;3658;47.992;10.158;2023-01-31T01:20:44;1.60;;;1.40;;
7233;SDS011;3658;47.992;10.158;2023-01-31T01:23:11;1.20;;;1.10;;
7233;SDS011;3658;47.992;10.158;2023-01-31T01:25:42;1.37;;;1.27;;
7233;SDS011;3658;47.992;10.158;2023-01-31T01:28:09;2.03;;;1.50;;
7233;SDS011;3658;47.992;10.158;2023-01-31T01:30:36;1.30;;;1.20;;
7233;SDS011;3658;47.992;10.158;2023-01-31T01:33:03;1.73;;;1.30;;
7233;SDS011;3658;47.992;10.158;2023-01-31T01:35:30;2.13;;;1.20;;
7233;SDS011;3658;47.992;10.158;2023-01-31T01:37:59;1.40;;;1.30;;
7233;SDS011;3658;47.992;10.158;2023-01-31T01:40:32;1.20;;;1.10;;
7233;SDS011;3658;47.992;10.158;2023-01-31T01:43:00;1.50;;;1.40;;
7233;SDS011;3658;47.992;10.158;2023-01-31T01:45:27;1.20;;;1.10;;
7233;SDS011;3658;47.992;10.158;2023-01-31T01:47:56;1.50;;;1.40;;
7233;SDS011;3658;47.992;10.158;2023-01-31T01:50:27;1.20;;;1.10;;
7233;SDS011;3658;47.992;10.158;2023-01-31T01:52:59;2.17;;;1.20;;
7233;SDS011;3658;47.992;10.158;2023-01-31T01:55:31;1.30;;;1.17;;
7233;SDS011;3658;47.992;10.158;2023-01-31T01:58:01;1.73;;;1.20;;
7233;SDS011;3658;47.992;10.158;2023-01-31T02:00:32;1.20;;;1.10;;
7233;SDS011;3658;47.992;10.158;2023-01-31T02:03:02;1.40;;;1.30;;
7233;SDS011;3658;47.992;10.158;2023-01-31T02:05:32;1.63;;;1.40;;
7233;SDS011;3658;47.992;10.158;2023-01-31T02:08:03;1.20;;;1.10;;
7233;SDS011;3658;47.992;10.158;2023-01-31T02:10:31;1.23;;;1.13;;
7233;SDS011;3658;47.992;10.158;2023-01-31T02:13:01;1.20;;;1.00;;
7233;SDS011;3658;47.992;10.158;2023-01-31T02:15:29;1.60;;;1.50;;
7233;SDS011;3658;47.992;10.158;2023-01-31T02:17:57;1.33;;;1.10;;
7233;SDS011;3658;47.992;10.158;2023-01-31T02:20:28;1.40;;;1.30;;
7233;SDS011;3658;47.992;10.158;2023-01-31T02:26:14;1.17;;;1.10;;
7233;SDS011;3658;47.992;10.158;2023-01-31T02:29:12;1.40;;;1.30;;
7233;SDS011;3658;47.992;10.158;2023-01-31T02:35:00;1.30;;;1.20;;
7233;SDS011;3658;47.992;10.158;2023-01-31T02:37:36;1.33;;;1.20;;
7233;SDS011;3658;47.992;10.158;2023-01-31T02:40:14;1.40;;;1.30;;
7233;SDS011;3658;47.992;10.158;2023-01-31T02:42:47;1.20;;;1.10;;
7233;SDS011;3658;47.992;10.158;2023-01-31T02:45:26;1.30;;;1.07;;
7233;SDS011;3658;47.992;10.158;2023-01-31T02:48:04;1.60;;;1.30;;
7233;SDS011;3658;47.992;10.158;2023-01-31T02:50:40;1.73;;;1.13;;
7233;SDS011;3658;47.992;10.158;2023-01-31T02:53:11;1.40;;;1.30;;
7233;SDS011;3658;47.992;10.158;2023-01-31T02:55:47;1.23;;;1.13;;
7233;SDS011;3658;47.992;10.158;2023-01-31T02:58:36;1.40;;;1.30;;
7233;SDS011;3658;47.992;10.158;2023-01-31T03:01:05;1.20;;;1.10;;
7233;SDS011;3658;47.992;10.158;2023-01-31T03:03:36;1.63;;;1.30;;
7233;SDS011;3658;47.992;10.158;2023-01-31T03:09:29;1.30;;;1.20;;
7233;SDS011;3658;47.992;10.158;2023-01-31T03:12:10;1.10;;;1.00;;
7233;SDS011;3658;47.992;10.158;2023-01-31T03:14:47;1.60;;;1.10;;
7233;SDS011;3658;47.992;10.158;2023-01-31T03:17:25;1.27;;;1.17;;
7233;SDS011;3658;47.992;10.158;2023-01-31T03:20:03;1.37;;;1.27;;
7233;SDS011;3658;47.992;10.158;2023-01-31T03:22:34;1.97;;;1.20;;
7233;SDS011;3658;47.992;10.158;2023-01-31T03:25:06;1.20;;;1.10;;
7233;SDS011;3658;47.992;10.158;2023-01-31T03:27:35;1.27;;;1.13;;
7233;SDS011;3658;47.992;10.158;2023-01-31T03:30:07;1.30;;;1.20;;
7233;SDS011;3658;47.992;10.158;2023-01-31T03:32:39;1.23;;;1.10;;
7233;SDS011;3658;47.992;10.158;2023-01-31T03:35:10;1.40;;;1.30;;
7233;SDS011;3658;47.992;10.158;2023-01-31T03:37:39;1.27;;;1.10;;
7233;SDS011;3658;47.992;10.158;2023-01-31T03:40:15;1.27;;;1.10;;
7233;SDS011;3658;47.992;10.158;2023-01-31T03:42:47;1.30;;;1.00;;
7233;SDS011;3658;47.992;10.158;2023-01-31T03:45:19;1.67;;;1.30;;
7233;SDS011;3658;47.992;10.158;2023-01-31T03:47:51;1.20;;;1.10;;
7233;SDS011;3658;47.992;10.158;2023-01-31T03:50:22;1.13;;;1.00;;
7233;SDS011;3658;47.992;10.158;2023-01-31T03:52:53;1.20;;;1.10;;
7233;SDS011;3658;47.992;10.158;2023-01-31T03:55:29;1.20;;;1.10;;
7233;SDS011;3658;47.992;10.158;2023-01-31T03:57:58;1.00;;;1.00;;
7233;SDS011;3658;47.992;10.158;2023-01-31T04:00:28;1.30;;;1.20;;
7233;SDS011;3658;47.992;10.158;2023-01-31T04:02:57;1.27;;;1.00;;
7233;SDS011;3658;47.992;10.158;2023-01-31T04:05:30;2.67;;;1.20;;
7233;SDS011;3658;47.992;10.158;2023-01-31T04:07:58;1.10;;;1.00;;
7233;SDS011;3658;47.992;10.158;2023-01-31T04:10:27;1.33;;;1.17;;
7233;SDS011;3658;47.992;10.158;2023-01-31T04:12:54;1.70;;;1.23;;
7233;SDS011;3658;47.992;10.158;2023-01-31T04:15:21;1.43;;;1.20;;
7233;SDS011;3658;47.992;10.158;2023-01-31T04:17:48;2.27;;;1.40;;
7233;SDS011;3658;47.992;10.158;2023-01-31T04:20:15;2.20;;;1.37;;
7233;SDS011;3658;47.992;10.158;2023-01-31T04:22:43;1.50;;;1.17;;
7233;SDS011;3658;47.992;10.158;2023-01-31T04:25:10;1.40;;;1.20;;
7233;SDS011;3658;47.992;10.158;2023-01-31T04:27:38;1.50;;;1.17;;
7233;SDS011;3658;47.992;10.158;2023-01-31T04:30:06;1.17;;;1.00;;
7233;SDS011;3658;47.992;10.158;2023-01-31T04:32:33;1.37;;;1.17;;
7233;SDS011;3658;47.992;10.158;2023-01-31T04:35:00;1.30;;;1.20;;
7233;SDS011;3658;47.992;10.158;2023-01-31T04:37:27;1.40;;;1.20;;
7233;SDS011;3658;47.992;10.158;2023-01-31T04:39:54;1.10;;;1.00;;
7233;SDS011;3658;47.992;10.158;2023-01-31T04:42:21;1.93;;;1.30;;
7233;SDS011;3658;47.992;10.158;2023-01-31T04:44:49;1.37;;;1.10;;
7233;SDS011;3658;47.992;10.158;2023-01-31T04:47:16;1.27;;;1.10;;
7233;SDS011;3658;47.992;10.158;2023-01-31T04:49:44;1.60;;;1.30;;
7233;SDS011;3658;47.992;10.158;2023-01-31T04:52:11;1.20;;;0.97;;
7233;SDS011;3658;47.992;10.158;2023-01-31T04:54:38;1.50;;;1.40;;
7233;SDS011;3658;47.992;10.158;2023-01-31T04:57:06;2.87;;;1.07;;
7233;SDS011;3658;47.992;10.158;2023-01-31T04:59:32;1.17;;;1.07;;
7233;SDS011;3658;47.992;10.158;2023-01-31T05:02:01;1.20;;;1.10;;
7233;SDS011;3658;47.992;10.158;2023-01-31T05:04:28;1.20;;;1.10;;
7233;SDS011;3658;47.992;10.158;2023-01-31T05:06:55;1.23;;;1.13;;
7233;SDS011;3658;47.992;10.158;2023-01-31T05:09:22;1.20;;;1.10;;
7233;SDS011;3658;47.992;10.158;2023-01-31T05:11:49;1.50;;;1.17;;
7233;SDS011;3658;47.992;10.158;2023-01-31T05:14:17;2.17;;;1.10;;
7233;SDS011;3658;47.992;10.158;2023-01-31T05:16:45;1.30;;;1.17;;
7233;SDS011;3658;47.992;10.158;2023-01-31T05:19:14;1.77;;;1.20;;
7233;SDS011;3658;47.992;10.158;2023-01-31T05:21:42;3.67;;;1.30;;
7233;SDS011;3658;47.992;10.158;2023-01-31T05:24:23;1.90;;;1.30;;
7233;SDS011;3658;47.992;10.158;2023-01-31T05:26:51;3.20;;;1.27;;
7233;SDS011;3658;47.992;10.158;2023-01-31T05:29:22;2.00;;;1.20;;
7233;SDS011;3658;47.992;10.158;2023-01-31T05:31:50;1.77;;;1.20;;
7233;SDS011;3658;47.992;10.158;2023-01-31T05:34:19;1.47;;;1.20;;
7233;SDS011;3658;47.992;10.158;2023-01-31T05:36:46;1.20;;;1.10;;
7233;SDS011;3658;47.992;10.158;2023-01-31T05:39:13;1.27;;;1.10;;
7233;SDS011;3658;47.992;10.158;2023-01-31T05:41:40;2.03;;;1.30;;
7233;SDS011;3658;47.992;10.158;2023-01-31T05:44:07;4.37;;;1.10;;
7233;SDS011;3658;47.992;10.158;2023-01-31T05:46:34;5.70;;;1.60;;
7233;SDS011;3658;47.992;10.158;2023-01-31T05:49:02;3.87;;;1.43;;
7233;SDS011;3658;47.992;10.158;2023-01-31T05:51:31;2.00;;;1.27;;
7233;SDS011;3658;47.992;10.158;2023-01-31T05:53:58;1.87;;;1.20;;
7233;SDS011;3658;47.992;10.158;2023-01-31T05:56:25;5.60;;;1.20;;
7233;SDS011;3658;47.992;10.158;2023-01-31T05:58:52;3.23;;;1.30;;
7233;SDS011;3658;47.992;10.158;2023-01-31T06:01:19;1.30;;;1.20;;
7233;SDS011;3658;47.992;10.158;2023-01-31T06:03:48;2.73;;;1.10;;
7233;SDS011;3658;47.992;10.158;2023-01-31T06:06:16;1.33;;;1.23;;
7233;SDS011;3658;47.992;10.158;2023-01-31T06:08:44;1.30;;;1.20;;
7233;SDS011;3658;47.992;10.158;2023-01-31T06:11:12;1.83;;;1.20;;
7233;SDS011;3658;47.992;10.158;2023-01-31T06:13:39;1.47;;;1.30;;
7233;SDS011;3658;47.992;10.158;2023-01-31T06:16:08;2.20;;;1.20;;
7233;SDS011;3658;47.992;10.158;2023-01-31T06:18:35;3.53;;;1.30;;
7233;SDS011;3658;47.992;10.158;2023-01-31T06:21:03;1.20;;;1.10;;
7233;SDS011;3658;47.992;10.158;2023-01-31T06:23:30;1.97;;;1.43;;
7233;SDS011;3658;47.992;10.158;2023-01-31T06:25:59;2.17;;;1.20;;
7233;SDS011;3658;47.992;10.158;2023-01-31T06:28:26;1.40;;;1.30;;
7233;SDS011;3658;47.992;10.158;2023-01-31T06:30:54;3.87;;;1.40;;
7233;SDS011;3658;47.992;10.158;2023-01-31T06:33:21;1.57;;;1.30;;
7233;SDS011;3658;47.992;10.158;2023-01-31T06:35:48;1.70;;;1.40;;
7233;SDS011;3658;47.992;10.158;2023-01-31T06:38:15;1.20;;;1.10;;
7233;SDS011;3658;47.992;10.158;2023-01-31T06:40:42;1.30;;;1.20;;
7233;SDS011;3658;47.992;10.158;2023-01-31T06:43:10;1.20;;;1.10;;
7233;SDS011;3658;47.992;10.158;2023-01-31T06:45:37;4.00;;;1.40;;
7233;SDS011;3658;47.992;10.158;2023-01-31T06:48:04;2.17;;;1.50;;
7233;SDS011;3658;47.992;10.158;2023-01-31T06:50:31;3.43;;;1.30;;
7233;SDS011;3658;47.992;10.158;2023-01-31T06:52:58;2.73;;;1.50;;
7233;SDS011;3658;47.992;10.158;2023-01-31T06:55:25;4.87;;;1.43;;
7233;SDS011;3658;47.992;10.158;2023-01-31T06:57:52;2.37;;;1.30;;
7233;SDS011;3658;47.992;10.158;2023-01-31T07:00:21;3.27;;;1.43;;
7233;SDS011;3658;47.992;10.158;2023-01-31T07:02:49;4.53;;;1.40;;
7233;SDS011;3658;47.992;10.158;2023-01-31T07:05:17;4.90;;;1.70;;
7233;SDS011;3658;47.992;10.158;2023-01-31T07:07:45;2.57;;;1.40;;
7233;SDS011;3658;47.992;10.158;2023-01-31T07:10:12;3.70;;;1.40;;
7233;SDS011;3658;47.992;10.158;2023-01-31T07:12:39;3.20;;;1.37;;
7233;SDS011;3658;47.992;10.158;2023-01-31T07:15:07;3.03;;;1.50;;
7233;SDS011;3658;47.992;10.158;2023-01-31T07:17:36;4.10;;;1.43;;
7233;SDS011;3658;47.992;10.158;2023-01-31T07:20:03;1.40;;;1.27;;
7233;SDS011;3658;47.992;10.158;2023-01-31T07:22:31;1.80;;;1.43;;
7233;SDS011;3658;47.992;10.158;2023-01-31T07:24:58;4.43;;;1.93;;
7233;SDS011;3658;47.992;10.158;2023-01-31T07:27:25;2.03;;;1.50;;
7233;SDS011;3658;47.992;10.158;2023-01-31T07:29:52;1.87;;;1.40;;
7233;SDS011;3658;47.992;10.158;2023-01-31T07:32:19;3.03;;;1.53;;
7233;SDS011;3658;47.992;10.158;2023-01-31T07:34:48;4.33;;;1.60;;
7233;SDS011;3658;47.992;10.158;2023-01-31T07:37:15;2.53;;;1.40;;
7233;SDS011;3658;47.992;10.158;2023-01-31T07:39:42;3.30;;;1.60;;
7233;SDS011;3658;47.992;10.158;2023-01-31T07:42:09;4.40;;;1.50;;
7233;SDS011;3658;47.992;10.158;2023-01-31T07:44:35;3.33;;;1.57;;
7233;SDS011;3658;47.992;10.158;2023-01-31T07:47:02;1.93;;;1.50;;
7233;SDS011;3658;47.992;10.158;2023-01-31T07:49:29;2.07;;;1.37;;
7233;SDS011;3658;47.992;10.158;2023-01-31T07:51:58;2.17;;;1.50;;
7233;SDS011;3658;47.992;10.158;2023-01-31T07:54:26;3.13;;;1.93;;
7233;SDS011;3658;47.992;10.158;2023-01-31T07:56:53;1.43;;;1.27;;
7233;SDS011;3658;47.992;10.158;2023-01-31T07:59:20;2.70;;;1.80;;
7233;SDS011;3658;47.992;10.158;2023-01-31T08:01:47;1.63;;;1.30;;
7233;SDS011;3658;47.992;10.158;2023-01-31T08:04:32;2.83;;;1.70;;
7233;SDS011;3658;47.992;10.158;2023-01-31T08:07:01;3.27;;;1.50;;
7233;SDS011;3658;47.992;10.158;2023-01-31T08:09:31;2.37;;;1.40;;
7233;SDS011;3658;47.992;10.158;2023-01-31T08:11:58;1.97;;;1.30;;
7233;SDS011;3658;47.992;10.158;2023-01-31T08:14:26;1.93;;;1.33;;
7233;SDS011;3658;47.992;10.158;2023-01-31T08:16:53;2.23;;;1.50;;
7233;SDS011;3658;47.992;10.158;2023-01-31T08:19:20;1.50;;;1.40;;
7233;SDS011;3658;47.992;10.158;2023-01-31T08:21:47;3.23;;;1.40;;
7233;SDS011;3658;47.992;10.158;2023-01-31T08:24:16;2.40;;;1.40;;
7233;SDS011;3658;47.992;10.158;2023-01-31T08:26:43;3.00;;;1.37;;
7233;SDS011;3658;47.992;10.158;2023-01-31T08:29:10;2.23;;;1.40;;
7233;SDS011;3658;47.992;10.158;2023-01-31T08:31:38;1.70;;;1.27;;
7233;SDS011;3658;47.992;10.158;2023-01-31T08:34:06;1.60;;;1.30;;
7233;SDS011;3658;47.992;10.158;2023-01-31T08:36:33;2.87;;;1.53;;
7233;SDS011;3658;47.992;10.158;2023-01-31T08:39:00;1.63;;;1.37;;
7233;SDS011;3658;47.992;10.158;2023-01-31T08:41:30;1.70;;;1.20;;
7233;SDS011;3658;47.992;10.158;2023-01-31T08:43:59;3.30;;;1.27;;
7233;SDS011;3658;47.992;10.158;2023-01-31T08:46:28;3.10;;;1.43;;
7233;SDS011;3658;47.992;10.158;2023-01-31T08:48:57;2.60;;;1.63;;
7233;SDS011;3658;47.992;10.158;2023-01-31T08:51:25;4.03;;;1.50;;
7233;SDS011;3658;47.992;10.158;2023-01-31T08:53:53;1.47;;;1.37;;
7233;SDS011;3658;47.992;10.158;2023-01-31T08:56:20;1.63;;;1.20;;
7233;SDS011;3658;47.992;10.158;2023-01-31T08:58:51;1.37;;;1.27;;
7233;SDS011;3658;47.992;10.158;2023-01-31T09:01:19;1.40;;;1.30;;
7233;SDS011;3658;47.992;10.158;2023-01-31T09:03:47;1.47;;;1.30;;
7233;SDS011;3658;47.992;10.158;2023-01-31T09:06:20;1.57;;;1.37;;
7233;SDS011;3658;47.992;10.158;2023-01-31T09:08:48;1.47;;;1.30;;
7233;SDS011;3658;47.992;10.158;2023-01-31T09:11:15;1.70;;;1.40;;
7233;SDS011;3658;47.992;10.158;2023-01-31T09:13:43;1.50;;;1.40;;
7233;SDS011;3658;47.992;10.158;2023-01-31T09:16:12;1.63;;;1.40;;
7233;SDS011;3658;47.992;10.158;2023-01-31T09:18:40;3.77;;;1.60;;
7233;SDS011;3658;47.992;10.158;2023-01-31T09:21:08;1.63;;;1.20;;
7233;SDS011;3658;47.992;10.158;2023-01-31T09:23:36;3.40;;;1.40;;
7233;SDS011;3658;47.992;10.158;2023-01-31T09:26:04;4.40;;;1.33;;
7233;SDS011;3658;47.992;10.158;2023-01-31T09:28:31;1.67;;;1.30;;
7233;SDS011;3658;47.992;10.158;2023-01-31T09:31:02;2.90;;;1.30;;
7233;SDS011;3658;47.992;10.158;2023-01-31T09:33:32;1.67;;;1.50;;
7233;SDS011;3658;47.992;10.158;2023-01-31T09:36:00;1.47;;;1.33;;
7233;SDS011;3658;47.992;10.158;2023-01-31T09:38:29;1.20;;;1.10;;
7233;SDS011;3658;47.992;10.158;2023-01-31T09:40:56;1.67;;;1.23;;
7233;SDS011;3658;47.992;10.158;2023-01-31T09:43:27;4.10;;;1.30;;
7233;SDS011;3658;47.992;10.158;2023-01-31T09:45:59;1.33;;;1.23;;
7233;SDS011;3658;47.992;10.158;2023-01-31T09:48:29;1.43;;;1.20;;
7233;SDS011;3658;47.992;10.158;2023-01-31T09:51:00;2.70;;;1.43;;
7233;SDS011;3658;47.992;10.158;2023-01-31T09:53:29;2.23;;;1.43;;
7233;SDS011;3658;47.992;10.158;2023-01-31T09:56:03;3.00;;;1.30;;
7233;SDS011;3658;47.992;10.158;2023-01-31T09:58:40;2.07;;;1.20;;
7233;SDS011;3658;47.992;10.158;2023-01-31T10:01:15;2.30;;;1.17;;
7233;SDS011;3658;47.992;10.158;2023-01-31T10:03:53;2.27;;;1.50;;
7233;SDS011;3658;47.992;10.158;2023-01-31T10:06:34;3.27;;;1.40;;
7233;SDS011;3658;47.992;10.158;2023-01-31T10:09:07;5.03;;;1.60;;
7233;SDS011;3658;47.992;10.158;2023-01-31T10:11:42;2.90;;;1.30;;
7233;SDS011;3658;47.992;10.158;2023-01-31T10:14:17;4.07;;;1.57;;
7233;SDS011;3658;47.992;10.158;2023-01-31T10:16:55;2.60;;;1.20;;
7233;SDS011;3658;47.992;10.158;2023-01-31T10:19:30;6.50;;;1.30;;
7233;SDS011;3658;47.992;10.158;2023-01-31T10:22:03;3.97;;;1.30;;
7233;SDS011;3658;47.992;10.158;2023-01-31T10:24:34;5.70;;;1.30;;
7233;SDS011;3658;47.992;10.158;2023-01-31T10:27:05;6.40;;;1.33;;
7233;SDS011;3658;47.992;10.158;2023-01-31T10:29:38;1.67;;;1.43;;
7233;SDS011;3658;47.992;10.158;2023-01-31T10:32:11;2.87;;;1.23;;
7233;SDS011;3658;47.992;10.158;2023-01-31T10:34:46;3.40;;;1.43;;
7233;SDS011;3658;47.992;10.158;2023-01-31T10:37:19;4.70;;;1.50;;
7233;SDS011;3658;47.992;10.158;2023-01-31T10:39:56;3.63;;;1.37;;
7233;SDS011;3658;47.992;10.158;2023-01-31T10:42:29;2.27;;;1.13;;
7233;SDS011;3658;47.992;10.158;2023-01-31T10:44:58;3.03;;;1.30;;
7233;SDS011;3658;47.992;10.158;2023-01-31T10:47:32;1.70;;;1.10;;
7233;SDS011;3658;47.992;10.158;2023-01-31T10:50:04;1.10;;;1.00;;
7233;SDS011;3658;47.992;10.158;2023-01-31T10:52:44;5.03;;;1.40;;
7233;SDS011;3658;47.992;10.158;2023-01-31T10:55:27;2.07;;;1.30;;
7233;SDS011;3658;47.992;10.158;2023-01-31T10:58:11;1.30;;;1.10;;
7233;SDS011;3658;47.992;10.158;2023-01-31T11:00:40;2.70;;;1.30;;
7233;SDS011;3658;47.992;10.158;2023-01-31T11:03:08;4.87;;;1.37;;
7233;SDS011;3658;47.992;10.158;2023-01-31T11:05:38;4.97;;;1.20;;
7233;SDS011;3658;47.992;10.158;2023-01-31T11:08:19;3.27;;;1.20;;
7233;SDS011;3658;47.992;10.158;2023-01-31T11:11:06;4.37;;;1.10;;
7233;SDS011;3658;47.992;10.158;2023-01-31T11:13:36;5.37;;;1.40;;
7233;SDS011;3658;47.992;10.158;2023-01-31T11:16:05;3.37;;;1.33;;
7233;SDS011;3658;47.992;10.158;2023-01-31T11:18:34;4.00;;;1.30;;
7233;SDS011;3658;47.992;10.158;2023-01-31T11:21:15;4.60;;;1.17;;
7233;SDS011;3658;47.992;10.158;2023-01-31T11:23:45;3.27;;;1.00;;
7233;SDS011;3658;47.992;10.158;2023-01-31T11:26:13;1.60;;;1.20;;
7233;SDS011;3658;47.992;10.158;2023-01-31T11:28:54;1.10;;;1.00;;
7233;SDS011;3658;47.992;10.158;2023-01-31T11:31:23;2.60;;;1.10;;
7233;SDS011;3658;47.992;10.158;2023-01-31T11:33:56;2.23;;;1.50;;
7233;SDS011;3658;47.992;10.158;2023-01-31T11:36:30;7.10;;;1.20;;
7233;SDS011;3658;47.992;10.158;2023-01-31T11:38:58;2.57;;;1.20;;
7233;SDS011;3658;47.992;10.158;2023-01-31T11:41:26;1.57;;;1.10;;
7233;SDS011;3658;47.992;10.158;2023-01-31T11:44:05;1.83;;;1.13;;
7233;SDS011;3658;47.992;10.158;2023-01-31T11:46:51;1.30;;;1.00;;
7233;SDS011;3658;47.992;10.158;2023-01-31T11:49:27;1.67;;;1.00;;
7233;SDS011;3658;47.992;10.158;2023-01-31T11:51:58;1.77;;;1.30;;
7233;SDS011;3658;47.992;10.158;2023-01-31T11:54:28;1.50;;;1.20;;
7233;SDS011;3658;47.992;10.158;2023-01-31T11:56:57;2.70;;;1.37;;
7233;SDS011;3658;47.992;10.158;2023-01-31T11:59:27;1.70;;;1.10;;
7233;SDS011;3658;47.992;10.158;2023-01-31T12:01:56;1.27;;;1.10;;
7233;SDS011;3658;47.992;10.158;2023-01-31T12:04:29;1.67;;;1.00;;
7233;SDS011;3658;47.992;10.158;2023-01-31T12:07:01;1.60;;;1.20;;
7233;SDS011;3658;47.992;10.158;2023-01-31T12:09:30;2.53;;;1.27;;
7233;SDS011;3658;47.992;10.158;2023-01-31T12:12:20;2.37;;;1.33;;
7233;SDS011;3658;47.992;10.158;2023-01-31T12:14:49;3.57;;;1.53;;
7233;SDS011;3658;47.992;10.158;2023-01-31T12:17:16;6.23;;;1.43;;
7233;SDS011;3658;47.992;10.158;2023-01-31T12:19:50;4.37;;;2.27;;
7233;SDS011;3658;47.992;10.158;2023-01-31T12:22:26;2.27;;;2.03;;
7233;SDS011;3658;47.992;10.158;2023-01-31T12:25:00;4.53;;;2.20;;
7233;SDS011;3658;47.992;10.158;2023-01-31T12:27:36;5.77;;;2.40;;
7233;SDS011;3658;47.992;10.158;2023-01-31T12:30:17;5.77;;;2.13;;
7233;SDS011;3658;47.992;10.158;2023-01-31T12:33:03;4.57;;;2.00;;
7233;SDS011;3658;47.992;10.158;2023-01-31T12:35:40;2.70;;;2.33;;
7233;SDS011;3658;47.992;10.158;2023-01-31T12:38:23;3.80;;;2.73;;
7233;SDS011;3658;47.992;10.158;2023-01-31T12:41:02;3.87;;;2.80;;
7233;SDS011;3658;47.992;10.158;2023-01-31T12:43:42;4.60;;;2.30;;
7233;SDS011;3658;47.992;10.158;2023-01-31T12:46:23;3.17;;;2.17;;
7233;SDS011;3658;47.992;10.158;2023-01-31T12:48:59;3.60;;;2.00;;
7233;SDS011;3658;47.992;10.158;2023-01-31T12:51:45;3.73;;;2.03;;
7233;SDS011;3658;47.992;10.158;2023-01-31T12:54:31;5.30;;;1.80;;
7233;SDS011;3658;47.992;10.158;2023-01-31T12:57:13;2.53;;;1.77;;
7233;SDS011;3658;47.992;10.158;2023-01-31T12:59:53;3.23;;;1.90;;
7233;SDS011;3658;47.992;10.158;2023-01-31T13:02:31;3.63;;;1.83;;
7233;SDS011;3658;47.992;10.158;2023-01-31T13:05:09;1.67;;;1.57;;
7233;SDS011;3658;47.992;10.158;2023-01-31T13:07:47;2.03;;;1.60;;
7233;SDS011;3658;47.992;10.158;2023-01-31T13:10:24;2.33;;;1.70;;
7233;SDS011;3658;47.992;10.158;2023-01-31T13:12:55;2.80;;;1.43;;
7233;SDS011;3658;47.992;10.158;2023-01-31T13:15:26;1.40;;;1.30;;
7233;SDS011;3658;47.992;10.158;2023-01-31T13:17:59;2.73;;;1.50;;
7233;SDS011;3658;47.992;10.158;2023-01-31T13:20:30;1.33;;;1.23;;
7233;SDS011;3658;47.992;10.158;2023-01-31T13:23:00;2.10;;;1.50;;
7233;SDS011;3658;47.992;10.158;2023-01-31T13:25:34;3.03;;;1.87;;
7233;SDS011;3658;47.992;10.158;2023-01-31T13:28:05;1.50;;;1.40;;
7233;SDS011;3658;47.992;10.158;2023-01-31T13:30:40;1.80;;;1.40;;
7233;SDS011;3658;47.992;10.158;2023-01-31T13:33:16;2.87;;;1.60;;
7233;SDS011;3658;47.992;10.158;2023-01-31T13:35:53;1.87;;;1.20;;
7233;SDS011;3658;47.992;10.158;2023-01-31T13:38:24;3.30;;;1.70;;
7233;SDS011;3658;47.992;10.158;2023-01-31T13:41:00;1.97;;;1.60;;
7233;SDS011;3658;47.992;10.158;2023-01-31T13:43:28;2.67;;;1.40;;
7233;SDS011;3658;47.992;10.158;2023-01-31T13:45:56;1.67;;;1.43;;
7233;SDS011;3658;47.992;10.158;2023-01-31T13:48:32;1.60;;;1.40;;
7233;SDS011;3658;47.992;10.158;2023-01-31T13:51:05;3.77;;;1.40;;
7233;SDS011;3658;47.992;10.158;2023-01-31T13:53:41;2.60;;;1.60;;
7233;SDS011;3658;47.992;10.158;2023-01-31T13:56:15;1.57;;;1.40;;
7233;SDS011;3658;47.992;10.158;2023-01-31T13:58:47;2.93;;;1.47;;
7233;SDS011;3658;47.992;10.158;2023-01-31T14:01:16;1.70;;;1.37;;
7233;SDS011;3658;47.992;10.158;2023-01-31T14:09:42;1.70;;;1.40;;
7233;SDS011;3658;47.992;10.158;2023-01-31T14:14:58;3.17;;;1.20;;
7233;SDS011;3658;47.992;10.158;2023-01-31T14:20:27;1.50;;;1.40;;
7233;SDS011;3658;47.992;10.158;2023-01-31T14:25:59;2.00;;;1.53;;
7233;SDS011;3658;47.992;10.158;2023-01-31T14:28:27;1.83;;;1.40;;
7233;SDS011;3658;47.992;10.158;2023-01-31T14:30:55;2.13;;;1.37;;
7233;SDS011;3658;47.992;10.158;2023-01-31T14:33:23;1.43;;;1.33;;
7233;SDS011;3658;47.992;10.158;2023-01-31T14:36:12;3.73;;;1.37;;
7233;SDS011;3658;47.992;10.158;2023-01-31T14:39:12;2.53;;;1.40;;
7233;SDS011;3658;47.992;10.158;2023-01-31T14:45:14;2.47;;;1.30;;
7233;SDS011;3658;47.992;10.158;2023-01-31T14:47:55;1.70;;;1.40;;
7233;SDS011;3658;47.992;10.158;2023-01-31T14:50:34;1.20;;;1.10;;
7233;SDS011;3658;47.992;10.158;2023-01-31T14:53:21;1.50;;;1.30;;
7233;SDS011;3658;47.992;10.158;2023-01-31T14:56:03;2.27;;;1.40;;
7233;SDS011;3658;47.992;10.158;2023-01-31T14:58:40;4.83;;;1.50;;
7233;SDS011;3658;47.992;10.158;2023-01-31T15:01:10;2.40;;;1.50;;
7233;SDS011;3658;47.992;10.158;2023-01-31T15:03:46;1.50;;;1.40;;
7233;SDS011;3658;47.992;10.158;2023-01-31T15:06:16;1.47;;;1.20;;
7233;SDS011;3658;47.992;10.158;2023-01-31T15:08:50;1.47;;;1.37;;
7233;SDS011;3658;47.992;10.158;2023-01-31T15:11:44;6.27;;;1.60;;
7233;SDS011;3658;47.992;10.158;2023-01-31T15:14:19;1.60;;;1.50;;
7233;SDS011;3658;47.992;10.158;2023-01-31T15:16:55;1.50;;;1.40;;
7233;SDS011;3658;47.992;10.158;2023-01-31T15:19:25;1.33;;;1.23;;
7233;SDS011;3658;47.992;10.158;2023-01-31T15:21:57;1.30;;;1.20;;
7233;SDS011;3658;47.992;10.158;2023-01-31T15:24:29;1.63;;;1.40;;
7233;SDS011;3658;47.992;10.158;2023-01-31T15:26:59;1.30;;;1.20;;
7233;SDS011;3658;47.992;10.158;2023-01-31T15:29:33;1.67;;;1.53;;
7233;SDS011;3658;47.992;10.158;2023-01-31T15:32:16;1.30;;;1.20;;
7233;SDS011;3658;47.992;10.158;2023-01-31T15:34:47;1.40;;;1.30;;
7233;SDS011;3658;47.992;10.158;2023-01-31T15:37:20;1.47;;;1.23;;
7233;SDS011;3658;47.992;10.158;2023-01-31T15:39:52;6.40;;;1.60;;
7233;SDS011;3658;47.992;10.158;2023-01-31T15:42:23;1.67;;;1.57;;
7233;SDS011;3658;47.992;10.158;2023-01-31T15:47:57;1.40;;;1.30;;
7233;SDS011;3658;47.992;10.158;2023-01-31T15:50:27;6.10;;;1.20;;
7233;SDS011;3658;47.992;10.158;2023-01-31T15:52:55;1.33;;;1.13;;
7233;SDS011;3658;47.992;10.158;2023-01-31T15:55:27;2.43;;;1.20;;